sensor_id;sensor_type;location;lat;lon;timestamp;P1;durP1;ratioP1;P2;durP2;ratioP2
9005;SDS011;62284;50.702;7.140;2022-07-23T00:01:17;9.50;;;8.90;;
9005;SDS011;62284;50.702;7.140;2022-07-23T00:03:46;10.40;;;9.50;;
9005;SDS011;62284;50.702;7.140;2022-07-23T00:06:13;10.13;;;9.32;;
9005;SDS011;62284;50.702;7.140;2022-07-23T00:08:40;9.60;;;8.90;;
9005;SDS011;62284;50.702;7.140;2022-07-23T00:11:07;10.85;;;10.05;;
9005;SDS011;62284;50.702;7.140;2022-07-23T00:13:34;10.63;;;9.82;;
9005;SDS011;62284;50.702;7.140;2022-07-23T00:16:01;10.15;;;9.35;;
9005;SDS011;62284;50.702;7.140;2022-07-23T00:18:28;10.73;;;9.85;;
9005;SDS011;62284;50.702;7.140;2022-07-23T00:20:56;11.30;;;10.40;;
9005;SDS011;62284;50.702;7.140;2022-07-23T00:23:23;11.88;;;10.93;;
9005;SDS011;62284;50.702;7.140;2022-07-23T00:25:51;11.32;;;10.32;;
9005;SDS011;62284;50.702;7.140;2022-07-23T00:28:18;11.70;;;10.70;;
9005;SDS011;62284;50.702;7.140;2022-07-23T00:30:45;10.93;;;10.13;;
9005;SDS011;62284;50.702;7.140;2022-07-23T00:33:12;11.57;;;10.57;;
9005;SDS011;62284;50.702;7.140;2022-07-23T00:35:39;11.60;;;10.70;;
9005;SDS011;62284;50.702;7.140;2022-07-23T00:38:08;12.40;;;11.50;;
9005;SDS011;62284;50.702;7.140;2022-07-23T00:40:36;12.05;;;11.05;;
9005;SDS011;62284;50.702;7.140;2022-07-23T00:43:04;11.88;;;10.98;;
9005;SDS011;62284;50.702;7.140;2022-07-23T00:45:31;11.18;;;10.27;;
9005;SDS011;62284;50.702;7.140;2022-07-23T00:47:58;12.95;;;11.85;;
9005;SDS011;62284;50.702;7.140;2022-07-23T00:50:25;12.90;;;12.00;;
9005;SDS011;62284;50.702;7.140;2022-07-23T00:52:52;13.80;;;12.60;;
9005;SDS011;62284;50.702;7.140;2022-07-23T00:55:21;12.23;;;11.23;;
9005;SDS011;62284;50.702;7.140;2022-07-23T00:57:48;13.15;;;12.05;;
9005;SDS011;62284;50.702;7.140;2022-07-23T01:00:16;13.07;;;12.07;;
9005;SDS011;62284;50.702;7.140;2022-07-23T01:02:43;13.07;;;12.18;;
9005;SDS011;62284;50.702;7.140;2022-07-23T01:05:10;13.20;;;12.20;;
9005;SDS011;62284;50.702;7.140;2022-07-23T01:07:38;12.65;;;11.55;;
9005;SDS011;62284;50.702;7.140;2022-07-23T01:10:05;13.18;;;12.10;;
9005;SDS011;62284;50.702;7.140;2022-07-23T01:12:54;14.25;;;13.13;;
9005;SDS011;62284;50.702;7.140;2022-07-23T01:15:21;13.75;;;12.65;;
9005;SDS011;62284;50.702;7.140;2022-07-23T01:17:48;13.10;;;12.10;;
9005;SDS011;62284;50.702;7.140;2022-07-23T01:20:16;13.95;;;12.85;;
9005;SDS011;62284;50.702;7.140;2022-07-23T01:22:44;13.85;;;12.70;;
9005;SDS011;62284;50.702;7.140;2022-07-23T01:25:11;13.93;;;12.82;;
9005;SDS011;62284;50.702;7.140;2022-07-23T01:27:38;14.75;;;13.45;;
9005;SDS011;62284;50.702;7.140;2022-07-23T01:30:06;14.70;;;13.63;;
9005;SDS011;62284;50.702;7.140;2022-07-23T01:32:33;13.38;;;12.27;;
9005;SDS011;62284;50.702;7.140;2022-07-23T01:35:01;13.63;;;12.52;;
9005;SDS011;62284;50.702;7.140;2022-07-23T01:37:28;14.15;;;13.10;;
9005;SDS011;62284;50.702;7.140;2022-07-23T01:39:56;14.95;;;13.52;;
9005;SDS011;62284;50.702;7.140;2022-07-23T01:42:24;14.55;;;13.45;;
9005;SDS011;62284;50.702;7.140;2022-07-23T01:44:51;13.43;;;12.45;;
9005;SDS011;62284;50.702;7.140;2022-07-23T01:47:18;15.60;;;14.40;;
9005;SDS011;62284;50.702;7.140;2022-07-23T01:49:45;15.57;;;14.30;;
9005;SDS011;62284;50.702;7.140;2022-07-23T01:52:11;14.93;;;13.73;;
9005;SDS011;62284;50.702;7.140;2022-07-23T01:54:39;16.60;;;15.20;;
9005;SDS011;62284;50.702;7.140;2022-07-23T01:57:07;16.10;;;14.90;;
9005;SDS011;62284;50.702;7.140;2022-07-23T01:59:35;14.55;;;13.35;;
9005;SDS011;62284;50.702;7.140;2022-07-23T02:02:04;15.68;;;14.38;;
9005;SDS011;62284;50.702;7.140;2022-07-23T02:04:31;15.50;;;14.13;;
9005;SDS011;62284;50.702;7.140;2022-07-23T02:07:00;15.38;;;14.00;;
9005;SDS011;62284;50.702;7.140;2022-07-23T02:09:27;15.38;;;14.20;;
9005;SDS011;62284;50.702;7.140;2022-07-23T02:11:54;16.45;;;14.88;;
9005;SDS011;62284;50.702;7.140;2022-07-23T02:14:22;15.07;;;13.98;;
9005;SDS011;62284;50.702;7.140;2022-07-23T02:16:49;16.05;;;14.55;;
9005;SDS011;62284;50.702;7.140;2022-07-23T02:19:16;16.00;;;14.60;;
9005;SDS011;62284;50.702;7.140;2022-07-23T02:21:43;16.42;;;15.13;;
9005;SDS011;62284;50.702;7.140;2022-07-23T02:24:10;16.17;;;14.77;;
9005;SDS011;62284;50.702;7.140;2022-07-23T02:26:37;16.83;;;15.43;;
9005;SDS011;62284;50.702;7.140;2022-07-23T02:29:04;16.65;;;15.35;;
9005;SDS011;62284;50.702;7.140;2022-07-23T02:31:32;16.90;;;15.45;;
9005;SDS011;62284;50.702;7.140;2022-07-23T02:34:00;15.65;;;14.35;;
9005;SDS011;62284;50.702;7.140;2022-07-23T02:36:27;15.80;;;14.50;;
9005;SDS011;62284;50.702;7.140;2022-07-23T02:38:54;15.27;;;13.98;;
9005;SDS011;62284;50.702;7.140;2022-07-23T02:41:21;16.23;;;14.95;;
9005;SDS011;62284;50.702;7.140;2022-07-23T02:43:48;13.93;;;12.82;;
9005;SDS011;62284;50.702;7.140;2022-07-23T02:46:15;14.77;;;13.65;;
9005;SDS011;62284;50.702;7.140;2022-07-23T02:48:44;17.35;;;15.85;;
9005;SDS011;62284;50.702;7.140;2022-07-23T02:51:11;14.93;;;13.65;;
9005;SDS011;62284;50.702;7.140;2022-07-23T02:53:37;15.50;;;14.07;;
9005;SDS011;62284;50.702;7.140;2022-07-23T02:56:04;15.07;;;13.77;;
9005;SDS011;62284;50.702;7.140;2022-07-23T02:58:31;15.35;;;14.05;;
9005;SDS011;62284;50.702;7.140;2022-07-23T03:00:58;14.45;;;13.32;;
9005;SDS011;62284;50.702;7.140;2022-07-23T03:03:25;13.65;;;12.55;;
9005;SDS011;62284;50.702;7.140;2022-07-23T03:05:54;14.40;;;13.30;;
9005;SDS011;62284;50.702;7.140;2022-07-23T03:08:20;14.40;;;13.07;;
9005;SDS011;62284;50.702;7.140;2022-07-23T03:10:47;15.05;;;13.80;;
9005;SDS011;62284;50.702;7.140;2022-07-23T03:13:15;14.00;;;12.90;;
9005;SDS011;62284;50.702;7.140;2022-07-23T03:15:42;13.85;;;12.82;;
9005;SDS011;62284;50.702;7.140;2022-07-23T03:18:09;14.50;;;13.07;;
9005;SDS011;62284;50.702;7.140;2022-07-23T03:20:36;14.75;;;13.55;;
9005;SDS011;62284;50.702;7.140;2022-07-23T03:23:04;14.43;;;13.27;;
9005;SDS011;62284;50.702;7.140;2022-07-23T03:25:32;13.73;;;12.63;;
9005;SDS011;62284;50.702;7.140;2022-07-23T03:27:58;14.30;;;13.10;;
9005;SDS011;62284;50.702;7.140;2022-07-23T03:30:25;14.02;;;12.82;;
9005;SDS011;62284;50.702;7.140;2022-07-23T03:32:52;14.18;;;13.00;;
9005;SDS011;62284;50.702;7.140;2022-07-23T03:35:19;15.82;;;14.40;;
9005;SDS011;62284;50.702;7.140;2022-07-23T03:37:46;15.18;;;13.77;;
9005;SDS011;62284;50.702;7.140;2022-07-23T03:40:14;15.23;;;14.02;;
9005;SDS011;62284;50.702;7.140;2022-07-23T03:42:41;15.30;;;14.10;;
9005;SDS011;62284;50.702;7.140;2022-07-23T03:45:08;13.85;;;12.80;;
9005;SDS011;62284;50.702;7.140;2022-07-23T03:47:36;14.23;;;12.98;;
9005;SDS011;62284;50.702;7.140;2022-07-23T03:50:04;13.80;;;12.68;;
9005;SDS011;62284;50.702;7.140;2022-07-23T03:52:33;16.13;;;14.82;;
9005;SDS011;62284;50.702;7.140;2022-07-23T03:55:00;13.80;;;12.70;;
9005;SDS011;62284;50.702;7.140;2022-07-23T03:57:28;14.30;;;12.95;;
9005;SDS011;62284;50.702;7.140;2022-07-23T03:59:55;15.07;;;13.60;;
9005;SDS011;62284;50.702;7.140;2022-07-23T04:02:22;14.18;;;13.07;;
9005;SDS011;62284;50.702;7.140;2022-07-23T04:04:49;13.07;;;12.07;;
9005;SDS011;62284;50.702;7.140;2022-07-23T04:07:16;14.52;;;13.32;;
9005;SDS011;62284;50.702;7.140;2022-07-23T04:09:43;13.70;;;12.60;;
9005;SDS011;62284;50.702;7.140;2022-07-23T04:12:10;14.05;;;12.85;;
9005;SDS011;62284;50.702;7.140;2022-07-23T04:14:39;14.05;;;12.85;;
9005;SDS011;62284;50.702;7.140;2022-07-23T04:17:06;12.88;;;11.70;;
9005;SDS011;62284;50.702;7.140;2022-07-23T04:19:33;12.75;;;11.65;;
9005;SDS011;62284;50.702;7.140;2022-07-23T04:22:01;12.25;;;11.35;;
9005;SDS011;62284;50.702;7.140;2022-07-23T04:24:28;13.00;;;11.82;;
9005;SDS011;62284;50.702;7.140;2022-07-23T04:26:55;12.55;;;11.48;;
9005;SDS011;62284;50.702;7.140;2022-07-23T04:29:22;12.20;;;11.20;;
9005;SDS011;62284;50.702;7.140;2022-07-23T04:31:51;11.98;;;10.98;;
9005;SDS011;62284;50.702;7.140;2022-07-23T04:34:18;11.75;;;10.75;;
9005;SDS011;62284;50.702;7.140;2022-07-23T04:36:45;12.75;;;11.70;;
9005;SDS011;62284;50.702;7.140;2022-07-23T04:39:12;13.20;;;12.10;;
9005;SDS011;62284;50.702;7.140;2022-07-23T04:41:39;12.68;;;11.57;;
9005;SDS011;62284;50.702;7.140;2022-07-23T04:44:06;13.05;;;11.85;;
9005;SDS011;62284;50.702;7.140;2022-07-23T04:46:33;12.57;;;11.57;;
9005;SDS011;62284;50.702;7.140;2022-07-23T04:49:01;11.10;;;10.20;;
9005;SDS011;62284;50.702;7.140;2022-07-23T04:51:28;12.45;;;11.45;;
9005;SDS011;62284;50.702;7.140;2022-07-23T04:53:55;10.98;;;10.18;;
9005;SDS011;62284;50.702;7.140;2022-07-23T04:56:22;11.02;;;10.13;;
9005;SDS011;62284;50.702;7.140;2022-07-23T04:58:49;10.80;;;9.90;;
9005;SDS011;62284;50.702;7.140;2022-07-23T05:01:16;11.90;;;10.80;;
9005;SDS011;62284;50.702;7.140;2022-07-23T05:03:43;11.40;;;10.43;;
9005;SDS011;62284;50.702;7.140;2022-07-23T05:06:11;11.30;;;10.35;;
9005;SDS011;62284;50.702;7.140;2022-07-23T05:08:38;10.60;;;9.70;;
9005;SDS011;62284;50.702;7.140;2022-07-23T05:11:05;11.18;;;10.27;;
9005;SDS011;62284;50.702;7.140;2022-07-23T05:13:32;11.13;;;10.10;;
9005;SDS011;62284;50.702;7.140;2022-07-23T05:15:58;11.57;;;10.45;;
9005;SDS011;62284;50.702;7.140;2022-07-23T05:18:25;12.45;;;11.35;;
9005;SDS011;62284;50.702;7.140;2022-07-23T05:20:52;12.00;;;11.07;;
9005;SDS011;62284;50.702;7.140;2022-07-23T05:23:21;12.75;;;11.70;;
9005;SDS011;62284;50.702;7.140;2022-07-23T05:25:48;12.40;;;11.40;;
9005;SDS011;62284;50.702;7.140;2022-07-23T05:28:15;13.45;;;12.43;;
9005;SDS011;62284;50.702;7.140;2022-07-23T05:30:41;14.88;;;13.63;;
9005;SDS011;62284;50.702;7.140;2022-07-23T05:33:08;15.07;;;13.77;;
9005;SDS011;62284;50.702;7.140;2022-07-23T05:35:35;17.23;;;15.73;;
9005;SDS011;62284;50.702;7.140;2022-07-23T05:38:02;15.75;;;14.43;;
9005;SDS011;62284;50.702;7.140;2022-07-23T05:40:30;15.23;;;13.85;;
9005;SDS011;62284;50.702;7.140;2022-07-23T05:42:58;14.60;;;13.30;;
9005;SDS011;62284;50.702;7.140;2022-07-23T05:45:25;13.55;;;12.35;;
9005;SDS011;62284;50.702;7.140;2022-07-23T05:47:51;14.65;;;13.40;;
9005;SDS011;62284;50.702;7.140;2022-07-23T05:50:18;15.57;;;14.20;;
9005;SDS011;62284;50.702;7.140;2022-07-23T05:52:46;15.18;;;13.88;;
9005;SDS011;62284;50.702;7.140;2022-07-23T05:55:13;15.20;;;13.80;;
9005;SDS011;62284;50.702;7.140;2022-07-23T05:57:42;14.82;;;13.38;;
9005;SDS011;62284;50.702;7.140;2022-07-23T06:00:09;14.82;;;13.50;;
9005;SDS011;62284;50.702;7.140;2022-07-23T06:02:37;14.07;;;12.93;;
9005;SDS011;62284;50.702;7.140;2022-07-23T06:05:05;13.57;;;12.38;;
9005;SDS011;62284;50.702;7.140;2022-07-23T06:07:33;16.08;;;14.68;;
9005;SDS011;62284;50.702;7.140;2022-07-23T06:10:00;16.45;;;15.05;;
9005;SDS011;62284;50.702;7.140;2022-07-23T06:12:27;16.65;;;15.23;;
9005;SDS011;62284;50.702;7.140;2022-07-23T06:14:56;15.35;;;14.05;;
9005;SDS011;62284;50.702;7.140;2022-07-23T06:17:23;15.10;;;13.80;;
9005;SDS011;62284;50.702;7.140;2022-07-23T06:19:50;15.57;;;14.38;;
9005;SDS011;62284;50.702;7.140;2022-07-23T06:22:17;15.60;;;14.30;;
9005;SDS011;62284;50.702;7.140;2022-07-23T06:24:43;16.60;;;15.23;;
9005;SDS011;62284;50.702;7.140;2022-07-23T06:27:10;15.30;;;13.93;;
9005;SDS011;62284;50.702;7.140;2022-07-23T06:29:38;14.27;;;13.07;;
9005;SDS011;62284;50.702;7.140;2022-07-23T06:32:07;15.38;;;14.10;;
9005;SDS011;62284;50.702;7.140;2022-07-23T06:34:34;14.15;;;13.05;;
9005;SDS011;62284;50.702;7.140;2022-07-23T06:37:01;14.48;;;13.23;;
9005;SDS011;62284;50.702;7.140;2022-07-23T06:39:28;16.38;;;14.85;;
9005;SDS011;62284;50.702;7.140;2022-07-23T06:41:55;15.77;;;14.48;;
9005;SDS011;62284;50.702;7.140;2022-07-23T06:44:22;16.33;;;14.93;;
9005;SDS011;62284;50.702;7.140;2022-07-23T06:46:49;14.43;;;13.20;;
9005;SDS011;62284;50.702;7.140;2022-07-23T06:49:17;15.18;;;13.77;;
9005;SDS011;62284;50.702;7.140;2022-07-23T06:51:44;14.00;;;12.82;;
9005;SDS011;62284;50.702;7.140;2022-07-23T06:54:11;16.38;;;15.07;;
9005;SDS011;62284;50.702;7.140;2022-07-23T06:56:38;14.45;;;13.05;;
9005;SDS011;62284;50.702;7.140;2022-07-23T06:59:05;13.27;;;12.07;;
9005;SDS011;62284;50.702;7.140;2022-07-23T07:01:32;14.82;;;13.40;;
9005;SDS011;62284;50.702;7.140;2022-07-23T07:03:58;13.77;;;12.48;;
9005;SDS011;62284;50.702;7.140;2022-07-23T07:06:27;13.43;;;12.30;;
9005;SDS011;62284;50.702;7.140;2022-07-23T07:08:53;12.63;;;11.63;;
9005;SDS011;62284;50.702;7.140;2022-07-23T07:11:21;13.68;;;12.55;;
9005;SDS011;62284;50.702;7.140;2022-07-23T07:13:48;12.93;;;11.82;;
9005;SDS011;62284;50.702;7.140;2022-07-23T07:16:15;12.00;;;11.07;;
9005;SDS011;62284;50.702;7.140;2022-07-23T07:18:42;10.55;;;9.75;;
9005;SDS011;62284;50.702;7.140;2022-07-23T07:21:09;11.10;;;10.20;;
9005;SDS011;62284;50.702;7.140;2022-07-23T07:23:37;10.50;;;9.60;;
9005;SDS011;62284;50.702;7.140;2022-07-23T07:26:04;9.38;;;8.68;;
9005;SDS011;62284;50.702;7.140;2022-07-23T07:28:31;10.65;;;9.63;;
9005;SDS011;62284;50.702;7.140;2022-07-23T07:30:58;8.30;;;7.60;;
9005;SDS011;62284;50.702;7.140;2022-07-23T07:33:25;8.52;;;7.72;;
9005;SDS011;62284;50.702;7.140;2022-07-23T07:35:52;8.85;;;8.05;;
9005;SDS011;62284;50.702;7.140;2022-07-23T07:38:19;4.88;;;4.47;;
9005;SDS011;62284;50.702;7.140;2022-07-23T07:40:47;7.03;;;6.43;;
9005;SDS011;62284;50.702;7.140;2022-07-23T07:43:14;6.03;;;5.50;;
9005;SDS011;62284;50.702;7.140;2022-07-23T07:45:40;6.22;;;5.70;;
9005;SDS011;62284;50.702;7.140;2022-07-23T07:48:07;6.60;;;6.00;;
9005;SDS011;62284;50.702;7.140;2022-07-23T07:50:34;5.32;;;4.93;;
9005;SDS011;62284;50.702;7.140;2022-07-23T07:53:01;5.72;;;5.22;;
9005;SDS011;62284;50.702;7.140;2022-07-23T07:55:28;6.82;;;4.90;;
9005;SDS011;62284;50.702;7.140;2022-07-23T07:57:57;5.45;;;4.97;;
9005;SDS011;62284;50.702;7.140;2022-07-23T08:00:24;6.07;;;5.15;;
9005;SDS011;62284;50.702;7.140;2022-07-23T08:02:52;5.32;;;4.82;;
9005;SDS011;62284;50.702;7.140;2022-07-23T08:05:20;6.68;;;6.18;;
9005;SDS011;62284;50.702;7.140;2022-07-23T08:07:48;7.75;;;7.15;;
9005;SDS011;62284;50.702;7.140;2022-07-23T08:10:15;7.07;;;6.45;;
9005;SDS011;62284;50.702;7.140;2022-07-23T08:12:43;8.63;;;7.95;;
9005;SDS011;62284;50.702;7.140;2022-07-23T08:15:13;8.05;;;7.25;;
9005;SDS011;62284;50.702;7.140;2022-07-23T08:17:41;8.20;;;7.50;;
9005;SDS011;62284;50.702;7.140;2022-07-23T08:20:09;7.75;;;7.05;;
9005;SDS011;62284;50.702;7.140;2022-07-23T08:22:44;8.30;;;7.55;;
9005;SDS011;62284;50.702;7.140;2022-07-23T08:25:12;7.57;;;6.97;;
9005;SDS011;62284;50.702;7.140;2022-07-23T08:27:39;7.65;;;7.05;;
9005;SDS011;62284;50.702;7.140;2022-07-23T08:30:06;7.50;;;6.90;;
9005;SDS011;62284;50.702;7.140;2022-07-23T08:32:48;7.95;;;7.25;;
9005;SDS011;62284;50.702;7.140;2022-07-23T08:35:16;6.85;;;6.22;;
9005;SDS011;62284;50.702;7.140;2022-07-23T08:37:44;8.50;;;7.70;;
9005;SDS011;62284;50.702;7.140;2022-07-23T08:40:11;8.57;;;7.78;;
9005;SDS011;62284;50.702;7.140;2022-07-23T08:42:38;7.40;;;6.80;;
9005;SDS011;62284;50.702;7.140;2022-07-23T08:45:07;8.10;;;7.30;;
9005;SDS011;62284;50.702;7.140;2022-07-23T08:47:35;13.82;;;8.98;;
9005;SDS011;62284;50.702;7.140;2022-07-23T08:50:05;7.90;;;7.18;;
9005;SDS011;62284;50.702;7.140;2022-07-23T08:52:34;7.50;;;6.88;;
9005;SDS011;62284;50.702;7.140;2022-07-23T08:55:02;6.50;;;5.95;;
9005;SDS011;62284;50.702;7.140;2022-07-23T08:57:30;7.07;;;6.47;;
9005;SDS011;62284;50.702;7.140;2022-07-23T08:59:56;8.80;;;8.10;;
9005;SDS011;62284;50.702;7.140;2022-07-23T09:02:23;8.85;;;8.07;;
9005;SDS011;62284;50.702;7.140;2022-07-23T09:04:50;8.20;;;7.50;;
9005;SDS011;62284;50.702;7.140;2022-07-23T09:07:19;8.20;;;7.50;;
9005;SDS011;62284;50.702;7.140;2022-07-23T09:09:45;8.43;;;7.65;;
9005;SDS011;62284;50.702;7.140;2022-07-23T09:12:12;7.60;;;7.00;;
9005;SDS011;62284;50.702;7.140;2022-07-23T09:14:40;7.53;;;6.80;;
9005;SDS011;62284;50.702;7.140;2022-07-23T09:17:09;7.30;;;6.78;;
9005;SDS011;62284;50.702;7.140;2022-07-23T09:19:38;7.63;;;6.93;;
9005;SDS011;62284;50.702;7.140;2022-07-23T09:25:09;8.23;;;7.53;;
9005;SDS011;62284;50.702;7.140;2022-07-23T09:27:45;8.02;;;7.32;;
9005;SDS011;62284;50.702;7.140;2022-07-23T09:30:14;8.95;;;8.18;;
9005;SDS011;62284;50.702;7.140;2022-07-23T09:33:05;7.28;;;6.68;;
9005;SDS011;62284;50.702;7.140;2022-07-23T09:35:45;7.65;;;6.93;;
9005;SDS011;62284;50.702;7.140;2022-07-23T09:38:14;6.63;;;6.13;;
9005;SDS011;62284;50.702;7.140;2022-07-23T09:40:42;7.35;;;6.72;;
9005;SDS011;62284;50.702;7.140;2022-07-23T09:43:10;6.70;;;6.10;;
9005;SDS011;62284;50.702;7.140;2022-07-23T09:45:37;6.72;;;6.22;;
9005;SDS011;62284;50.702;7.140;2022-07-23T09:48:09;5.70;;;5.13;;
9005;SDS011;62284;50.702;7.140;2022-07-23T09:50:37;5.68;;;5.18;;
9005;SDS011;62284;50.702;7.140;2022-07-23T09:53:04;6.13;;;5.63;;
9005;SDS011;62284;50.702;7.140;2022-07-23T09:55:35;7.20;;;6.50;;
9005;SDS011;62284;50.702;7.140;2022-07-23T09:58:03;6.80;;;6.30;;
9005;SDS011;62284;50.702;7.140;2022-07-23T10:00:31;7.13;;;6.53;;
9005;SDS011;62284;50.702;7.140;2022-07-23T10:02:59;6.78;;;6.18;;
9005;SDS011;62284;50.702;7.140;2022-07-23T10:05:27;6.72;;;6.13;;
9005;SDS011;62284;50.702;7.140;2022-07-23T10:07:55;6.28;;;5.78;;
9005;SDS011;62284;50.702;7.140;2022-07-23T10:10:26;7.65;;;7.05;;
9005;SDS011;62284;50.702;7.140;2022-07-23T10:12:56;6.55;;;6.05;;
9005;SDS011;62284;50.702;7.140;2022-07-23T10:15:49;6.88;;;6.20;;
9005;SDS011;62284;50.702;7.140;2022-07-23T10:18:16;6.68;;;6.07;;
9005;SDS011;62284;50.702;7.140;2022-07-23T10:20:43;6.18;;;5.05;;
9005;SDS011;62284;50.702;7.140;2022-07-23T10:23:14;7.10;;;6.50;;
9005;SDS011;62284;50.702;7.140;2022-07-23T10:25:49;5.40;;;5.00;;
9005;SDS011;62284;50.702;7.140;2022-07-23T10:28:29;5.82;;;5.25;;
9005;SDS011;62284;50.702;7.140;2022-07-23T10:31:14;5.97;;;5.40;;
9005;SDS011;62284;50.702;7.140;2022-07-23T10:33:54;5.63;;;5.20;;
9005;SDS011;62284;50.702;7.140;2022-07-23T10:36:30;5.10;;;4.70;;
9005;SDS011;62284;50.702;7.140;2022-07-23T10:39:07;4.65;;;4.25;;
9005;SDS011;62284;50.702;7.140;2022-07-23T10:41:40;6.35;;;5.00;;
9005;SDS011;62284;50.702;7.140;2022-07-23T10:44:10;6.05;;;5.18;;
9005;SDS011;62284;50.702;7.140;2022-07-23T10:49:25;4.90;;;4.20;;
9005;SDS011;62284;50.702;7.140;2022-07-23T10:52:15;4.70;;;4.38;;
9005;SDS011;62284;50.702;7.140;2022-07-23T10:54:46;5.43;;;5.03;;
9005;SDS011;62284;50.702;7.140;2022-07-23T10:57:16;5.15;;;4.65;;
9005;SDS011;62284;50.702;7.140;2022-07-23T11:02:40;4.07;;;3.78;;
9005;SDS011;62284;50.702;7.140;2022-07-23T11:05:09;4.68;;;4.28;;
9005;SDS011;62284;50.702;7.140;2022-07-23T11:10:42;5.30;;;4.80;;
9005;SDS011;62284;50.702;7.140;2022-07-23T11:13:25;4.72;;;4.32;;
9005;SDS011;62284;50.702;7.140;2022-07-23T11:16:13;3.90;;;3.63;;
9005;SDS011;62284;50.702;7.140;2022-07-23T11:18:55;3.45;;;3.22;;
9005;SDS011;62284;50.702;7.140;2022-07-23T11:21:42;5.68;;;3.92;;
9005;SDS011;62284;50.702;7.140;2022-07-23T11:24:14;4.45;;;4.10;;
9005;SDS011;62284;50.702;7.140;2022-07-23T11:26:44;4.90;;;4.50;;
9005;SDS011;62284;50.702;7.140;2022-07-23T11:32:11;4.13;;;3.72;;
9005;SDS011;62284;50.702;7.140;2022-07-23T11:34:56;4.10;;;3.75;;
9005;SDS011;62284;50.702;7.140;2022-07-23T11:37:27;4.65;;;3.80;;
9005;SDS011;62284;50.702;7.140;2022-07-23T11:39:58;3.25;;;3.05;;
9005;SDS011;62284;50.702;7.140;2022-07-23T11:42:25;3.25;;;2.97;;
9005;SDS011;62284;50.702;7.140;2022-07-23T11:44:52;3.35;;;3.05;;
9005;SDS011;62284;50.702;7.140;2022-07-23T11:47:34;3.33;;;3.13;;
9005;SDS011;62284;50.702;7.140;2022-07-23T11:50:02;4.40;;;4.00;;
9005;SDS011;62284;50.702;7.140;2022-07-23T11:52:31;4.15;;;3.85;;
9005;SDS011;62284;50.702;7.140;2022-07-23T11:54:59;4.15;;;3.75;;
9005;SDS011;62284;50.702;7.140;2022-07-23T11:57:28;4.22;;;3.92;;
9005;SDS011;62284;50.702;7.140;2022-07-23T11:59:56;4.32;;;4.00;;
9005;SDS011;62284;50.702;7.140;2022-07-23T12:02:31;3.92;;;3.63;;
9005;SDS011;62284;50.702;7.140;2022-07-23T12:04:59;3.80;;;3.60;;
9005;SDS011;62284;50.702;7.140;2022-07-23T12:07:30;3.28;;;3.08;;
9005;SDS011;62284;50.702;7.140;2022-07-23T12:09:58;4.55;;;4.13;;
9005;SDS011;62284;50.702;7.140;2022-07-23T12:12:27;4.63;;;4.32;;
9005;SDS011;62284;50.702;7.140;2022-07-23T12:15:03;3.90;;;3.60;;
9005;SDS011;62284;50.702;7.140;2022-07-23T12:17:31;4.07;;;3.72;;
9005;SDS011;62284;50.702;7.140;2022-07-23T12:20:02;4.32;;;3.97;;
9005;SDS011;62284;50.702;7.140;2022-07-23T12:22:34;4.30;;;3.95;;
9005;SDS011;62284;50.702;7.140;2022-07-23T12:25:03;3.35;;;3.15;;
9005;SDS011;62284;50.702;7.140;2022-07-23T12:27:32;4.20;;;3.90;;
9005;SDS011;62284;50.702;7.140;2022-07-23T12:30:14;6.35;;;3.67;;
9005;SDS011;62284;50.702;7.140;2022-07-23T12:32:46;4.50;;;4.10;;
9005;SDS011;62284;50.702;7.140;2022-07-23T12:35:15;4.53;;;4.20;;
9005;SDS011;62284;50.702;7.140;2022-07-23T12:37:43;4.90;;;4.15;;
9005;SDS011;62284;50.702;7.140;2022-07-23T12:40:18;4.30;;;4.00;;
9005;SDS011;62284;50.702;7.140;2022-07-23T12:42:46;4.40;;;4.03;;
9005;SDS011;62284;50.702;7.140;2022-07-23T12:45:14;5.38;;;3.92;;
9005;SDS011;62284;50.702;7.140;2022-07-23T12:50:37;4.43;;;4.03;;
9005;SDS011;62284;50.702;7.140;2022-07-23T12:53:07;4.28;;;3.97;;
9005;SDS011;62284;50.702;7.140;2022-07-23T12:55:36;3.40;;;3.20;;
9005;SDS011;62284;50.702;7.140;2022-07-23T12:58:07;4.60;;;4.20;;
9005;SDS011;62284;50.702;7.140;2022-07-23T13:03:32;4.75;;;4.30;;
9005;SDS011;62284;50.702;7.140;2022-07-23T13:06:06;3.97;;;3.67;;
9005;SDS011;62284;50.702;7.140;2022-07-23T13:08:35;4.00;;;3.70;;
9005;SDS011;62284;50.702;7.140;2022-07-23T13:11:04;4.35;;;4.05;;
9005;SDS011;62284;50.702;7.140;2022-07-23T13:13:33;3.83;;;3.40;;
9005;SDS011;62284;50.702;7.140;2022-07-23T13:16:01;3.80;;;3.50;;
9005;SDS011;62284;50.702;7.140;2022-07-23T13:18:28;3.53;;;3.25;;
9005;SDS011;62284;50.702;7.140;2022-07-23T13:20:58;3.55;;;3.25;;
9005;SDS011;62284;50.702;7.140;2022-07-23T13:23:27;3.85;;;3.55;;
9005;SDS011;62284;50.702;7.140;2022-07-23T13:25:54;3.45;;;3.25;;
9005;SDS011;62284;50.702;7.140;2022-07-23T13:28:22;3.65;;;3.35;;
9005;SDS011;62284;50.702;7.140;2022-07-23T13:30:49;3.42;;;3.20;;
9005;SDS011;62284;50.702;7.140;2022-07-23T13:33:17;3.33;;;3.10;;
9005;SDS011;62284;50.702;7.140;2022-07-23T13:35:45;3.45;;;3.15;;
9005;SDS011;62284;50.702;7.140;2022-07-23T13:38:12;3.53;;;3.22;;
9005;SDS011;62284;50.702;7.140;2022-07-23T13:40:41;3.50;;;3.20;;
9005;SDS011;62284;50.702;7.140;2022-07-23T13:43:10;3.80;;;3.38;;
9005;SDS011;62284;50.702;7.140;2022-07-23T13:45:39;3.58;;;3.33;;
9005;SDS011;62284;50.702;7.140;2022-07-23T13:48:07;3.63;;;3.33;;
9005;SDS011;62284;50.702;7.140;2022-07-23T13:50:35;3.75;;;3.40;;
9005;SDS011;62284;50.702;7.140;2022-07-23T13:53:02;3.20;;;3.00;;
9005;SDS011;62284;50.702;7.140;2022-07-23T13:55:30;3.47;;;3.28;;
9005;SDS011;62284;50.702;7.140;2022-07-23T13:57:58;3.78;;;3.20;;
9005;SDS011;62284;50.702;7.140;2022-07-23T14:00:27;3.70;;;3.40;;
9005;SDS011;62284;50.702;7.140;2022-07-23T14:02:55;3.72;;;3.20;;
9005;SDS011;62284;50.702;7.140;2022-07-23T14:05:23;3.80;;;3.05;;
9005;SDS011;62284;50.702;7.140;2022-07-23T14:07:52;3.45;;;3.22;;
9005;SDS011;62284;50.702;7.140;2022-07-23T14:10:20;4.10;;;3.47;;
9005;SDS011;62284;50.702;7.140;2022-07-23T14:12:49;3.85;;;3.55;;
9005;SDS011;62284;50.702;7.140;2022-07-23T14:15:19;3.35;;;3.15;;
9005;SDS011;62284;50.702;7.140;2022-07-23T14:17:45;3.13;;;2.92;;
9005;SDS011;62284;50.702;7.140;2022-07-23T14:20:13;3.72;;;3.03;;
9005;SDS011;62284;50.702;7.140;2022-07-23T14:22:40;3.35;;;3.15;;
9005;SDS011;62284;50.702;7.140;2022-07-23T14:25:08;3.28;;;3.08;;
9005;SDS011;62284;50.702;7.140;2022-07-23T14:27:35;3.50;;;3.20;;
9005;SDS011;62284;50.702;7.140;2022-07-23T14:30:03;3.67;;;3.35;;
9005;SDS011;62284;50.702;7.140;2022-07-23T14:32:33;3.58;;;3.38;;
9005;SDS011;62284;50.702;7.140;2022-07-23T14:35:01;3.42;;;3.17;;
9005;SDS011;62284;50.702;7.140;2022-07-23T14:37:28;3.40;;;3.10;;
9005;SDS011;62284;50.702;7.140;2022-07-23T14:39:55;5.22;;;3.20;;
9005;SDS011;62284;50.702;7.140;2022-07-23T14:42:22;2.70;;;2.50;;
9005;SDS011;62284;50.702;7.140;2022-07-23T14:44:49;3.25;;;2.95;;
9005;SDS011;62284;50.702;7.140;2022-07-23T14:47:16;2.90;;;2.70;;
9005;SDS011;62284;50.702;7.140;2022-07-23T14:49:44;2.75;;;2.65;;
9005;SDS011;62284;50.702;7.140;2022-07-23T14:52:11;3.08;;;2.80;;
9005;SDS011;62284;50.702;7.140;2022-07-23T14:54:38;2.85;;;2.65;;
9005;SDS011;62284;50.702;7.140;2022-07-23T14:57:05;2.95;;;2.75;;
9005;SDS011;62284;50.702;7.140;2022-07-23T14:59:34;2.70;;;2.60;;
9005;SDS011;62284;50.702;7.140;2022-07-23T15:02:01;2.42;;;2.33;;
9005;SDS011;62284;50.702;7.140;2022-07-23T15:04:28;3.17;;;2.88;;
9005;SDS011;62284;50.702;7.140;2022-07-23T15:06:56;2.75;;;2.60;;
9005;SDS011;62284;50.702;7.140;2022-07-23T15:09:23;2.88;;;2.67;;
9005;SDS011;62284;50.702;7.140;2022-07-23T15:11:50;3.13;;;2.83;;
9005;SDS011;62284;50.702;7.140;2022-07-23T15:14:17;3.13;;;2.83;;
9005;SDS011;62284;50.702;7.140;2022-07-23T15:16:44;2.80;;;2.60;;